Latest Weather Observations for Low Isles

IDQ60801

Issued at 7:42 am EST Tuesday 7 July 2020 (issued every 10 minutes, with the page automatically refreshed every 10 minutes)

About weather observations | Map of weather stations | Latest weather observations for QLD | Other Formats
Station Details ID: 031037 Name: LOW ISLES LIGHTHOUSE Lat: -16.38 Lon: 145.56 Height: 2.9 m
Data from the previous 72 hours. | See also: Recent months at Low Isles
Date/Time
EST
Temp
°C
App
Temp
°C
Dew
Point
°C
Rel
Hum
%
Delta-T
°C
Wind Press
QNH
hPa
Press
MSL
hPa
Rain since
9am
mm
Dir  Spd
km/h
Gust
km/h
Spd
kts
Gust
kts
07/07:30am 21.9 19.3 18.7 82 2.0 SSE 30 33 16 18 1018.8 1018.8 0.0
07/07:00am 21.8 20.0 18.8 83 1.9 SE 26 32 14 17 1018.5 1018.5 0.0
07/06:30am 21.9 20.2 18.9 83 1.9 SE 26 32 14 17 1018.3 1018.3 0.0
07/06:00am 21.7 19.8 18.5 82 2.0 SE 26 33 14 18 1018.0 1018.0 0.0
07/05:30am 21.8 19.8 18.4 81 2.1 SE 26 30 14 16 1017.8 1017.8 0.0
07/05:00am 21.7 18.6 18.3 81 2.1 SE 32 37 17 20 1017.7 1017.7 0.0
07/04:30am 21.9 19.3 18.7 82 2.0 SE 30 33 16 18 1017.6 1017.6 0.0
07/04:00am 22.0 18.3 18.4 80 2.3 SE 35 41 19 22 1017.7 1017.7 0.0
07/03:30am 22.1 18.9 18.5 80 2.3 SE 33 39 18 21 1017.7 1017.7 0.0
07/03:00am 22.0 18.8 18.2 79 2.4 SE 32 39 17 21 1017.8 1017.8 0.0
07/02:30am 22.0 18.3 18.4 80 2.3 SE 35 41 19 22 1018.0 1018.0 0.0
07/02:00am 22.0 18.4 18.6 81 2.1 SE 35 41 19 22 1018.2 1018.2 0.0
07/01:30am 21.8 18.2 17.6 77 2.6 SE 33 39 18 21 1018.4 1018.4 0.0
07/01:00am 21.8 18.4 17.6 77 2.6 SE 32 35 17 19 1018.8 1018.8 0.0
07/12:30am 21.8 18.2 17.6 77 2.6 SE 33 39 18 21 1018.9 1018.9 0.0
07/12:00am 22.0 18.8 18.2 79 2.4 SE 32 35 17 19 1019.3 1019.3 0.0
 
Date/Time
EST
Temp
°C
App
Temp
°C
Dew
Point
°C
Rel
Hum
%
Delta-T
°C
Wind Press
QNH
hPa
Press
MSL
hPa
Rain since
9am
mm
Dir  Spd
km/h
Gust
km/h
Spd
kts
Gust
kts
06/11:30pm 21.8 18.8 17.8 78 2.5 SE 30 33 16 18 1019.7 1019.7 0.0
06/11:00pm 21.8 18.4 17.6 77 2.6 SE 32 39 17 21 1020.0 1020.0 0.0
06/10:30pm 21.8 18.1 17.4 76 2.7 SE 33 37 18 20 1020.1 1020.1 0.0
06/10:00pm 22.0 18.1 17.8 77 2.6 SE 35 39 19 21 1020.2 1020.2 0.0
06/09:30pm 22.1 18.1 17.5 75 2.8 SE 35 41 19 22 1020.1 1020.1 0.0
06/09:00pm 22.2 18.7 17.8 76 2.7 SE 33 39 18 21 1020.0 1020.0 0.0
06/08:30pm 22.1 18.2 17.9 77 2.6 SE 35 41 19 22 1019.9 1019.9 0.0
06/08:00pm 22.3 18.4 17.9 76 2.7 SE 35 41 19 22 1019.8 1019.8 0.0
06/07:30pm 22.3 17.6 17.7 75 2.9 SE 39 46 21 25 1019.6 1019.6 0.0
06/07:00pm 22.1 16.3 17.0 73 3.1 SE 43 48 23 26 1019.3 1019.3 0.0
06/06:30pm 22.1 16.5 17.5 75 2.8 SE 43 50 23 27 1018.9 1018.9 0.0
06/06:00pm 22.0 16.3 17.2 74 2.9 SE 43 50 23 27 1018.7 1018.7 0.0
06/05:30pm 21.9 16.2 17.3 75 2.8 SE 43 52 23 28 1018.6 1018.6 0.0
06/05:00pm 22.1 16.1 17.0 73 3.1 SE 44 52 24 28 1018.3 1018.3 0.0
06/04:30pm 22.4 16.7 17.3 73 3.1 SE 43 52 23 28 1018.1 1018.1 0.0
06/04:00pm 22.7 16.9 17.4 72 3.3 SE 44 54 24 29 1017.9 1017.9 0.0
06/03:30pm 22.7 17.1 17.4 72 3.3 SE 43 50 23 27 1018.0 1018.0 0.0
06/03:00pm 22.6 16.7 16.6 69 3.7 SE 43 50 23 27 1018.0 1018.0 0.0
06/02:30pm 22.9 17.2 17.1 70 3.6 SE 43 50 23 27 1018.2 1018.2 0.0
06/02:00pm 22.9 16.7 16.4 67 3.9 SE 44 52 24 28 1018.4 1018.4 0.0
06/01:30pm 23.0 16.9 16.3 66 4.1 SE 43 52 23 28 1018.8 1018.8 0.0
06/01:00pm 22.9 16.9 16.4 67 3.9 SE 43 50 23 27 1019.2 1019.2 0.0
06/12:30pm 22.8 16.6 16.4 67 3.9 SE 44 54 24 29 1019.6 1019.6 0.0
06/12:00pm 22.6 15.9 16.2 67 3.9 SE 46 54 25 29 1019.9 1019.9 0.0
06/11:30am 22.3 14.8 14.9 63 4.4 SE 48 56 26 30 1020.0 1020.0 0.0
06/11:00am 22.2 15.4 14.8 63 4.4 SE 44 54 24 29 1020.2 1020.2 0.0
06/10:30am 22.1 14.5 14.7 63 4.4 SE 48 56 26 30 1020.4 1020.4 0.0
06/10:00am 21.9 13.8 14.5 63 4.3 SE 50 59 27 32 1020.5 1020.5 0.0
06/09:30am 22.0 14.5 16.1 69 3.6 SE 50 57 27 31 1020.3 1020.3 0.0
06/09:00am 22.2 13.9 16.0 68 3.7 SE 54 63 29 34 1020.2 1020.2 0.0
06/08:30am 21.8 13.7 16.3 71 3.3 SE 54 61 29 33 1019.7 1019.7 0.0
06/08:00am 21.6 15.1 16.6 73 3.0 SE 46 57 25 31 1019.4 1019.4 0.0
06/07:30am 21.6 16.2 17.0 75 2.8 SE 41 46 22 25 1019.2 1019.2 0.0
06/07:00am 21.4 15.5 16.6 74 2.9 SE 43 50 23 27 1018.8 1018.8 0.0
06/06:30am 21.4 15.8 16.6 74 2.9 SE 41 46 22 25 1018.5 1018.5 0.0
06/06:00am 21.4 15.5 16.8 75 2.8 SE 43 50 23 27 1017.9 1017.9 0.0
06/05:30am 21.5 16.3 16.5 73 3.0 SE 39 43 21 23 1017.6 1017.6 0.0
06/05:00am 21.4 14.3 16.1 72 3.2 SE 48 54 26 29 1017.2 1017.2 0.0
06/04:30am 21.6 15.7 16.6 73 3.0 SE 43 50 23 27 1017.1 1017.1 0.0
06/04:00am 21.6 15.4 16.3 72 3.2 SE 44 50 24 27 1016.9 1016.9 0.0
06/03:30am 21.7 16.1 16.4 72 3.2 SE 41 48 22 26 1017.2 1017.2 0.0
06/03:00am 21.5 18.5 16.7 74 2.9 SSE 28 33 15 18 1017.3 1017.3 0.0
06/02:30am 21.5 18.3 16.2 72 3.2 SE 28 33 15 18 1017.7 1017.7 0.0
06/02:00am 21.5 18.2 16.0 71 3.3 SE 28 33 15 18 1018.0 1018.0 0.0
06/01:30am 21.5 17.7 15.8 70 3.4 SE 30 37 16 20 1018.2 1018.2 0.0
06/01:00am 21.5 17.0 15.3 68 3.7 SE 33 39 18 21 1018.5 1018.5 0.0
06/12:30am 21.4 16.9 15.0 67 3.8 SSE 32 35 17 19 1018.8 1018.8 0.0
06/12:00am 21.5 17.0 15.3 68 3.7 SSE 33 39 18 21 1019.0 1019.0 0.0
 
Date/Time
EST
Temp
°C
App
Temp
°C
Dew
Point
°C
Rel
Hum
%
Delta-T
°C
Wind Press
QNH
hPa
Press
MSL
hPa
Rain since
9am
mm
Dir  Spd
km/h
Gust
km/h
Spd
kts
Gust
kts
05/11:30pm 21.4 16.8 15.0 67 3.8 SSE 33 43 18 23 1019.2 1019.2 0.0
05/11:00pm 21.3 16.7 15.2 68 3.6 SSE 33 39 18 21 1019.5 1019.5 0.0
05/10:30pm 21.5 16.8 15.8 70 3.4 SSE 35 41 19 22 1019.6 1019.6 0.0
05/10:00pm 21.4 16.3 15.9 71 3.3 SSE 37 41 20 22 1019.6 1019.6 0.0
05/09:30pm 21.6 17.2 16.6 73 3.0 SSE 35 41 19 22 1019.8 1019.8 0.0
05/09:00pm 21.8 17.5 17.0 74 2.9 SSE 35 41 19 22 1019.7 1019.7 0.0
05/08:30pm 22.0 17.8 17.2 74 2.9 SSE 35 41 19 22 1019.6 1019.6 0.0
05/08:00pm 22.2 16.5 16.2 69 3.6 SE 41 46 22 25 1019.2 1019.2 0.0
05/07:30pm 22.1 16.1 17.0 73 3.1 SE 44 52 24 28 1019.0 1019.0 0.0
05/07:00pm 22.0 16.2 16.9 73 3.1 SE 43 50 23 27 1018.8 1018.8 0.0
05/06:30pm 22.0 16.1 16.7 72 3.2 ESE 43 48 23 26 1018.3 1018.3 0.0
05/06:00pm 22.0 15.9 16.3 70 3.4 SE 43 50 23 27 1018.1 1018.1 0.0
05/05:30pm 22.2 16.2 15.5 66 4.0 ESE 41 50 22 27 1017.7 1017.7 0.0
05/05:00pm 22.5 16.9 15.6 65 4.1 ESE 39 50 21 27 1017.5 1017.5 0.0
05/04:30pm 22.6 16.3 16.2 67 3.9 SE 44 52 24 28 1017.4 1017.4 0.0
05/04:00pm 22.8 16.8 16.4 67 3.9 SE 43 52 23 28 1017.5 1017.5 0.0
05/03:30pm 23.2 17.8 17.0 68 3.8 SE 41 50 22 27 1017.4 1017.4 0.0
05/03:00pm 23.5 17.5 16.5 65 4.3 SE 43 50 23 27 1017.5 1017.5 0.0
05/02:30pm 23.7 18.2 16.7 65 4.3 SE 41 46 22 25 1017.4 1017.4 0.0
05/02:00pm 23.9 17.9 16.9 65 4.3 SE 44 50 24 27 1017.8 1017.8 0.0
05/01:30pm 23.8 18.4 18.0 70 3.6 SE 43 50 23 27 1018.1 1018.1 0.0
05/01:00pm 23.8 18.3 18.2 71 3.5 SE 44 52 24 28 1018.4 1018.4 0.0
05/12:30pm 24.0 18.2 17.0 65 4.3 SE 43 50 23 27 1018.7 1018.7 0.0
05/12:00pm 23.4 19.1 18.7 75 3.0 SE 39 46 21 25 1019.1 1019.1 0.0
05/11:30am 23.4 19.0 18.5 74 3.1 SE 39 46 21 25 1019.5 1019.5 0.0
05/11:00am 23.8 19.2 18.0 70 3.6 ESE 39 48 21 26 1019.8 1019.8 0.0
05/10:30am 23.6 18.2 16.9 66 4.1 ESE 41 48 22 26 1019.9 1019.9 0.0
05/10:00am 23.2 20.4 19.4 79 2.4 SE 33 39 18 21 1019.8 1019.8 0.0
05/09:30am 22.7 20.2 18.9 79 2.4 SE 30 35 16 19 1019.8 1019.8 0.0
05/09:00am 22.7 19.9 19.1 80 2.3 SE 32 35 17 19 1019.6 1019.6 0.0
05/08:30am 22.7 19.3 19.1 80 2.3 SE 35 41 19 22 1019.3 1019.3 0.0
05/08:00am 22.5 19.4 18.5 78 2.5 SE 32 35 17 19 1018.8 1018.8 0.0
05/07:30am 22.5 20.3 18.7 79 2.4 SE 28 35 15 19 1018.4 1018.4 0.0
05/07:00am 22.3 19.2 18.5 79 2.4 SE 32 37 17 20 1018.2 1018.2 0.0
05/06:30am 22.3 19.2 18.5 79 2.4 SE 32 37 17 20 1017.9 1017.9 0.0
05/06:00am 22.2 19.1 18.4 79 2.4 SE 32 37 17 20 1017.5 1017.5 0.0
05/05:30am 22.2 18.8 17.8 76 2.7 SE 32 35 17 19 1017.3 1017.3 0.0
05/05:00am 22.3 19.5 18.1 77 2.6 SE 30 33 16 18 1017.2 1017.2 0.0
05/04:30am 22.4 19.2 17.3 73 3.1 SE 30 35 16 19 1017.1 1017.1 0.0
05/04:00am 22.4 19.1 17.1 72 3.2 SE 30 35 16 19 1017.2 1017.2 0.0
05/03:30am 22.4 19.1 17.1 72 3.3 SE 30 33 16 18 1017.3 1017.3 0.0
05/03:00am 22.4 20.4 17.5 74 3.0 SSE 24 28 13 15 1017.5 1017.5 0.0
05/02:30am 22.6 20.8 17.9 75 2.9 SSE 24 28 13 15 1017.7 1017.7 0.0
05/02:00am 22.7 21.1 18.3 76 2.8 SSE 24 28 13 15 1018.0 1018.0 0.0
05/01:30am 22.7 21.0 18.0 75 2.9 SSE 24 28 13 15 1018.2 1018.2 0.0
05/01:00am 22.6 20.6 18.2 76 2.7 SSE 26 32 14 17 1018.4 1018.4 0.0
05/12:30am 22.6 21.1 17.7 74 3.0 SE 22 28 12 15 1018.5 1018.5 0.0
05/12:00am 22.5 19.9 17.8 75 2.9 SSE 28 32 15 17 1018.7 1018.7 0.0
 
Date/Time
EST
Temp
°C
App
Temp
°C
Dew
Point
°C
Rel
Hum
%
Delta-T
°C
Wind Press
QNH
hPa
Press
MSL
hPa
Rain since
9am
mm
Dir  Spd
km/h
Gust
km/h
Spd
kts
Gust
kts
04/11:30pm 22.5 19.8 17.6 74 3.0 SSE 28 32 15 17 1018.9 1018.9 0.0
04/11:00pm 22.6 19.3 17.9 75 2.9 SSE 32 35 17 19 1019.2 1019.2 0.0
04/10:30pm 22.7 19.4 18.0 75 2.9 SE 32 37 17 20 1019.5 1019.5 0.0
04/10:00pm 22.7 19.2 18.0 75 2.9 SE 33 39 18 21 1019.6 1019.6 0.0
04/09:30pm 22.8 19.5 18.3 76 2.8 SE 33 37 18 20 1019.6 1019.6 0.0
04/09:00pm 22.8 19.2 18.6 77 2.6 SE 35 43 19 23 1019.3 1019.3 0.0
04/08:30pm 22.7 19.1 18.5 77 2.6 SE 35 43 19 23 1019.1 1019.1 0.0
04/08:00pm 22.7 19.2 18.7 78 2.5 SE 35 39 19 21 1018.9 1018.9 0.0
04/07:30pm 22.7 19.5 18.5 77 2.6 SE 33 39 18 21 1018.5 1018.5 0.0
04/07:00pm 22.8 18.9 18.8 78 2.5 SE 37 43 20 23 1018.1 1018.1 0.0
04/06:30pm 22.7 18.6 18.3 76 2.8 SE 37 43 20 23 1018.0 1018.0 0.0
04/06:00pm 22.9 19.7 18.7 77 2.6 SE 33 39 18 21 1017.7 1017.7 0.0
04/05:30pm 23.1 19.9 18.6 76 2.8 SE 33 39 18 21 1017.4 1017.4 0.0
04/05:00pm 23.3 20.1 18.6 75 3.0 SE 33 39 18 21 1017.3 1017.3 0.0
04/04:30pm 23.4 19.6 18.1 72 3.3 SE 35 39 19 21 1017.3 1017.3 0.0
04/04:00pm 23.6 19.9 18.3 72 3.3 SE 35 39 19 21 1017.3 1017.3 0.0
04/03:30pm 24.1 20.5 17.6 67 4.0 ESE 33 43 18 23 1017.2 1017.2 0.0
04/03:00pm 24.2 20.6 17.7 67 4.1 SE 33 39 18 21 1017.2 1017.2 0.0
04/02:30pm 24.2 20.7 18.8 72 3.4 SE 35 43 19 23 1017.2 1017.2 0.0
04/02:00pm 24.5 21.4 18.9 71 3.6 SE 33 39 18 21 1017.3 1017.3 0.0
04/01:30pm 24.6 21.2 19.0 71 3.6 SE 35 41 19 22 1017.7 1017.7 0.0
04/01:00pm 24.4 20.5 18.8 71 3.6 SE 37 41 20 22 1017.9 1017.9 0.0
04/12:30pm 24.5 21.6 19.3 73 3.3 SE 33 41 18 22 1018.4 1018.4 0.0
04/12:00pm 24.2 20.7 18.8 72 3.4 SE 35 41 19 22 1018.7 1018.7 0.0
04/11:30am 23.8 20.3 18.7 73 3.2 SE 35 39 19 21 1019.2 1019.2 0.0
04/11:00am 23.4 19.4 18.5 74 3.1 SE 37 41 20 22 1019.5 1019.5 0.0
04/10:30am 23.1 19.3 18.2 74 3.1 SE 35 41 19 22 1019.6 1019.6 0.0
04/10:00am 22.7 19.6 18.3 76 2.8 SE 32 37 17 20 1019.8 1019.8 0.0
04/09:30am 22.5 19.7 18.3 77 2.6 SE 30 37 16 20 1019.8 1019.8 0.0
04/09:00am 22.5 19.4 18.5 78 2.5 SE 32 37 17 20 1019.7 1019.7 0.2
04/08:30am 22.5 19.7 18.3 77 2.6 SE 30 33 16 18 1019.5 1019.5 0.2
04/08:00am 22.4 19.6 18.2 77 2.6 SSE 30 35 16 19 1019.2 1019.2 0.2

Other formats

Comma delimited format used in spreadsheet applications
http://www.bom.gov.au/fwo/IDQ60801/IDQ60801.94285.axf

JavaScript Object Notation format (JSON) in row-major order
http://www.bom.gov.au/fwo/IDQ60801/IDQ60801.94285.json

Data quality

Most of these data are generated automatically and are frequently updated. Quality checks on data are not normally performed. It is possible for incorrect values to appear. Refer to information at About Latest Weather Observations and please check the disclaimer before using these data.